Time;durP1;ratioP1;P1;durP2;ratioP2;P2;SDS_P1;SDS_P2;PMS_P1;PMS_P2;Temp;Humidity;BMP_temperature;BMP_pressure;BME280_temperature;BME280_humidity;BME280_pressure;Samples;Min_cycle;Max_cycle;Signal;HPM_P1;HPM_P2
2020/12/06 00:00:03;;;;;;;9.63;3.90;;;;;;;-5.44;57.19;102933.52;1753204;81;21109;-87
2020/12/06 00:02:27;;;;;;;11.03;4.25;;;;;;;-5.46;57.44;102939.33;1712046;81;21665;-87
2020/12/06 00:04:53;;;;;;;14.05;3.90;;;;;;;-5.43;57.46;102934.36;1752307;80;20934;-88
2020/12/06 00:07:19;;;;;;;11.78;4.03;;;;;;;-5.59;58.00;102931.39;1762795;81;21094;-87
2020/12/06 00:09:44;;;;;;;14.13;3.90;;;;;;;-5.56;58.21;102926.39;1730277;79;21218;-87
2020/12/06 00:12:10;;;;;;;10.10;4.00;;;;;;;-5.66;58.28;102927.91;1773888;79;21705;-86
2020/12/06 00:14:36;;;;;;;9.48;3.80;;;;;;;-5.59;58.25;102930.08;1773592;79;27041;-86
2020/12/06 00:17:02;;;;;;;12.80;4.22;;;;;;;-5.53;58.24;102933.62;1774211;79;20979;-86
2020/12/06 00:19:28;;;;;;;14.35;4.85;;;;;;;-5.56;58.19;102931.64;1775495;79;21062;-86
2020/12/06 00:21:54;;;;;;;13.98;5.03;;;;;;;-5.63;58.18;102939.06;1777001;79;21122;-87
2020/12/06 00:24:21;;;;;;;12.45;4.75;;;;;;;-5.59;58.68;102942.34;1779706;79;27416;-87
2020/12/06 00:26:47;;;;;;;10.60;4.30;;;;;;;-5.66;58.09;102933.16;1768631;80;21225;-87
2020/12/06 00:29:13;;;;;;;13.88;4.70;;;;;;;-5.65;57.95;102936.16;1776184;79;21154;-85
2020/12/06 00:31:38;;;;;;;13.43;5.05;;;;;;;-5.70;58.25;102940.40;1776976;79;20919;-85
2020/12/06 00:34:04;;;;;;;11.97;4.58;;;;;;;-5.71;58.50;102934.75;1773689;79;21245;-86
2020/12/06 00:36:30;;;;;;;14.23;5.33;;;;;;;-5.76;58.67;102944.72;1773478;79;27005;-85
2020/12/06 00:38:56;;;;;;;14.00;4.85;;;;;;;-5.69;58.69;102934.20;1776448;79;21561;-85
2020/12/06 00:45:04;;;;;;;15.03;5.15;;;;;;;-5.82;59.03;102932.81;1779019;79;21669;-85
2020/12/06 00:47:30;;;;;;;18.42;6.37;;;;;;;-5.91;58.98;102929.88;1776676;79;21962;-85
2020/12/06 00:49:57;;;;;;;23.25;6.40;;;;;;;-5.93;59.30;102926.56;1774738;79;27059;-86
2020/12/06 00:52:22;;;;;;;22.13;6.67;;;;;;;-5.98;59.92;102927.67;1776821;80;21082;-86
2020/12/06 00:54:48;;;;;;;22.87;6.45;;;;;;;-6.03;59.79;102924.95;1776927;79;20943;-87
2020/12/06 00:57:14;;;;;;;19.67;4.70;;;;;;;-6.07;59.94;102928.23;1776645;79;21147;-87
2020/12/06 00:59:40;;;;;;;18.23;4.90;;;;;;;-6.11;59.89;102921.97;1773515;79;21312;-88
2020/12/06 01:02:06;;;;;;;12.78;4.35;;;;;;;-6.04;60.45;102931.14;1760077;80;27186;-87
2020/12/06 01:04:32;;;;;;;10.38;4.05;;;;;;;-6.03;60.05;102928.88;1776089;79;21227;-87
2020/12/06 01:07:02;;;;;;;11.97;4.08;;;;;;;-6.14;60.20;102930.87;1773687;80;21586;-87
2020/12/06 01:09:28;;;;;;;15.48;4.15;;;;;;;-6.17;60.45;102931.89;1775415;79;21534;-87
2020/12/06 01:11:55;;;;;;;10.98;3.70;;;;;;;-6.15;60.35;102936.20;1775909;79;21161;-87
2020/12/06 01:14:20;;;;;;;11.53;4.05;;;;;;;-6.22;60.57;102941.81;1775422;79;21561;-87
2020/12/06 01:20:27;;;;;;;12.75;4.22;;;;;;;-6.13;60.11;102929.92;1776781;80;21145;-87
2020/12/06 01:22:53;;;;;;;11.15;3.75;;;;;;;-6.25;59.89;102935.44;1778941;79;20982;-85
2020/12/06 01:25:19;;;;;;;8.33;3.45;;;;;;;-6.27;60.56;102935.15;1778234;79;21159;-86
2020/12/06 01:27:44;;;;;;;11.22;4.35;;;;;;;-6.27;60.69;102934.67;1777237;79;27436;-88
2020/12/06 01:30:10;;;;;;;9.70;3.85;;;;;;;-6.37;61.16;102940.11;1765302;79;27144;-86
2020/12/06 01:32:36;;;;;;;10.68;4.22;;;;;;;-6.46;61.22;102942.80;1777190;79;20931;-86
2020/12/06 01:35:04;;;;;;;10.78;3.95;;;;;;;-6.40;60.65;102948.16;1773508;80;21031;-85
2020/12/06 01:37:32;;;;;;;12.47;4.50;;;;;;;-6.39;60.59;102945.91;1776199;79;21145;-86
2020/12/06 01:39:57;;;;;;;12.35;4.35;;;;;;;-6.47;60.60;102943.75;1727811;82;21557;-86
2020/12/06 01:42:24;;;;;;;12.82;4.70;;;;;;;-6.37;60.38;102936.65;1706678;84;26730;-86
2020/12/06 01:44:58;;;;;;;13.22;4.87;;;;;;;-6.47;60.78;102939.81;1706655;84;21140;-86
2020/12/06 01:51:05;;;;;;;10.98;3.98;;;;;;;-6.50;61.29;102936.06;1706556;84;21248;-86
2020/12/06 01:53:31;;;;;;;14.95;5.00;;;;;;;-6.57;60.96;102935.19;1702570;84;27014;-86
2020/12/06 01:55:57;;;;;;;11.78;4.28;;;;;;;-6.57;61.09;102937.34;1706449;84;26695;-87
2020/12/06 01:58:26;;;;;;;18.80;4.92;;;;;;;-6.49;61.14;102935.59;1706624;84;21696;-86
2020/12/06 02:00:52;;;;;;;12.65;4.65;;;;;;;-6.55;61.56;102932.02;1706535;84;21200;-86
2020/12/06 02:03:18;;;;;;;9.63;4.35;;;;;;;-6.56;61.16;102933.77;1706563;84;21183;-87
2020/12/06 02:05:44;;;;;;;11.22;4.47;;;;;;;-6.55;61.25;102934.64;1706521;84;27098;-86
2020/12/06 02:08:09;;;;;;;13.45;4.92;;;;;;;-6.61;60.96;102938.94;1706544;84;27287;-86
2020/12/06 02:10:35;;;;;;;14.73;5.20;;;;;;;-6.68;61.13;102941.89;1682729;84;28565;-85
2020/12/06 02:13:01;;;;;;;14.00;4.40;;;;;;;-6.61;61.30;102945.02;1706832;84;21045;-86
2020/12/06 02:15:27;;;;;;;15.98;4.42;;;;;;;-6.68;61.12;102937.95;1706356;84;22026;-86
2020/12/06 02:17:53;;;;;;;15.95;5.50;;;;;;;-6.64;61.04;102943.89;1706222;84;27293;-86
2020/12/06 02:20:21;;;;;;;13.80;4.70;;;;;;;-6.56;60.75;102941.64;1706574;84;26616;-87
2020/12/06 02:22:47;;;;;;;11.55;4.53;;;;;;;-6.54;61.10;102946.81;1702200;84;21153;-87
2020/12/06 02:25:13;;;;;;;14.03;4.80;;;;;;;-6.46;60.87;102946.73;1702616;84;21156;-86
2020/12/06 02:27:39;;;;;;;12.00;4.75;;;;;;;-6.62;61.30;102943.31;1702552;84;21163;-86
2020/12/06 02:30:05;;;;;;;12.37;4.78;;;;;;;-6.68;61.39;102946.30;1702439;84;27534;-86
2020/12/06 02:32:31;;;;;;;12.98;5.42;;;;;;;-6.77;61.88;102940.27;1702504;84;27228;-86
2020/12/06 02:34:57;;;;;;;14.63;4.85;;;;;;;-6.87;62.13;102939.97;1702575;84;21030;-86
2020/12/06 02:37:23;;;;;;;18.10;5.35;;;;;;;-6.83;61.97;102934.91;1748093;80;20970;-86
2020/12/06 02:39:51;;;;;;;14.33;5.47;;;;;;;-6.86;61.72;102934.63;1754840;80;21983;-86
2020/12/06 02:42:17;;;;;;;14.18;5.47;;;;;;;-6.86;61.98;102937.24;1754147;80;21129;-87
2020/12/06 02:44:43;;;;;;;20.43;5.78;;;;;;;-6.83;61.70;102941.94;1766376;80;21256;-86
2020/12/06 02:47:09;;;;;;;16.67;5.90;;;;;;;-6.87;61.71;102942.59;1748585;80;29596;-86
2020/12/06 02:49:39;;;;;;;17.17;5.40;;;;;;;-6.85;61.86;102944.66;1748517;80;20971;-87
2020/12/06 02:52:03;;;;;;;16.77;5.90;;;;;;;-6.87;61.98;102953.91;1757888;80;21610;-86
2020/12/06 02:54:29;;;;;;;12.07;4.95;;;;;;;-6.91;62.21;102949.79;1742036;81;27127;-86
2020/12/06 02:56:55;;;;;;;16.40;5.25;;;;;;;-6.89;62.47;102954.45;1724927;81;26816;-86
2020/12/06 02:59:20;;;;;;;16.10;5.78;;;;;;;-6.93;62.10;102957.36;1765822;80;24788;-86
2020/12/06 03:01:46;;;;;;;15.30;5.70;;;;;;;-6.98;62.22;102960.22;1758075;80;20975;-86
2020/12/06 03:04:12;;;;;;;14.93;4.90;;;;;;;-6.93;62.33;102959.98;1762279;80;22054;-86
2020/12/06 03:10:18;;;;;;;19.77;5.42;;;;;;;-7.02;62.43;102962.65;1758930;80;21085;-87
2020/12/06 03:12:44;;;;;;;18.30;6.05;;;;;;;-7.05;62.18;102965.91;1771930;80;21240;-87
2020/12/06 03:18:50;;;;;;;20.43;5.95;;;;;;;-7.03;62.20;102972.73;1763219;80;21131;-86
2020/12/06 03:21:17;;;;;;;21.33;7.17;;;;;;;-7.08;62.26;102974.78;1776987;79;26924;-86
2020/12/06 03:23:43;;;;;;;16.93;7.15;;;;;;;-7.13;62.54;102972.41;1777349;79;21034;-85
2020/12/06 03:26:09;;;;;;;21.68;7.25;;;;;;;-7.17;62.54;102978.76;1770304;80;21113;-86
2020/12/06 03:28:35;;;;;;;18.90;6.60;;;;;;;-7.09;62.61;102979.19;1773789;79;20970;-86
2020/12/06 03:31:00;;;;;;;17.17;6.08;;;;;;;-7.13;63.03;102980.73;1777155;79;21072;-85
2020/12/06 03:33:26;;;;;;;17.55;5.70;;;;;;;-7.17;63.05;102987.09;1778164;79;27040;-85
2020/12/06 03:35:52;;;;;;;14.18;5.95;;;;;;;-7.24;62.76;102987.03;1778073;79;21554;-86
2020/12/06 03:38:18;;;;;;;18.75;6.72;;;;;;;-7.19;62.72;102981.08;1776101;80;28427;-85
2020/12/06 03:44:13;;;;;;;11.30;5.00;;;;;;;-7.23;62.58;102985.65;1773722;79;21631;-85
2020/12/06 03:46:39;;;;;;;16.70;5.90;;;;;;;-7.25;63.01;102981.42;1774060;79;21607;-85
2020/12/06 03:49:05;;;;;;;17.95;6.62;;;;;;;-7.27;62.99;102980.17;1777000;80;21145;-85
2020/12/06 03:51:31;;;;;;;14.33;5.85;;;;;;;-7.41;63.85;102971.79;1773692;80;28533;-85
2020/12/06 03:53:56;;;;;;;18.32;6.70;;;;;;;-7.34;63.92;102978.37;1774620;80;26994;-85
2020/12/06 03:56:22;;;;;;;17.27;5.70;;;;;;;-7.48;64.48;102977.42;1775692;79;22290;-85
2020/12/06 03:58:48;;;;;;;15.25;6.00;;;;;;;-7.50;64.62;102984.04;1774210;79;27043;-85
2020/12/06 04:01:14;;;;;;;16.93;6.08;;;;;;;-7.56;64.72;102982.63;1756446;80;26571;-86
2020/12/06 04:03:40;;;;;;;20.20;6.03;;;;;;;-7.59;64.87;102984.54;1762306;80;28411;-86
2020/12/06 04:06:05;;;;;;;18.00;5.58;;;;;;;-7.62;64.93;102986.02;1763583;80;21009;-86
2020/12/06 04:08:31;;;;;;;15.88;6.58;;;;;;;-7.71;65.31;102986.50;1778458;79;21245;-86
2020/12/06 04:10:57;;;;;;;16.82;6.05;;;;;;;-7.61;65.40;102977.25;1773846;79;27009;-86
2020/12/06 04:13:23;;;;;;;17.25;5.92;;;;;;;-7.70;65.55;102981.67;1776278;79;27212;-86
2020/12/06 04:15:48;;;;;;;21.10;6.55;;;;;;;-7.77;65.73;102983.28;1774647;79;28122;-86
2020/12/06 04:18:15;;;;;;;16.70;6.55;;;;;;;-7.72;65.81;102986.13;1776403;79;21027;-86
2020/12/06 04:20:41;;;;;;;21.15;6.70;;;;;;;-7.70;65.92;102990.36;1778919;79;21167;-86
2020/12/06 04:23:07;;;;;;;18.85;6.40;;;;;;;-7.80;66.10;102983.91;1775866;79;27213;-86
2020/12/06 04:25:32;;;;;;;18.50;6.97;;;;;;;-7.79;65.84;102989.08;1759238;80;26695;-86
2020/12/06 04:27:58;;;;;;;16.12;6.40;;;;;;;-7.78;66.22;102990.75;1776731;79;28986;-87
2020/12/06 04:30:24;;;;;;;17.10;7.03;;;;;;;-7.85;66.46;102997.25;1773382;79;21148;-87
2020/12/06 04:32:50;;;;;;;16.60;6.87;;;;;;;-7.79;66.67;102990.85;1771258;79;21951;-86
2020/12/06 04:35:15;;;;;;;19.90;6.97;;;;;;;-7.78;66.29;102989.45;1773733;80;27098;-87
2020/12/06 04:37:41;;;;;;;19.20;7.67;;;;;;;-7.73;66.20;102992.27;1776382;79;26725;-86
2020/12/06 04:40:07;;;;;;;16.23;5.75;;;;;;;-7.90;66.69;102997.94;1778821;79;27725;-86
2020/12/06 04:42:33;;;;;;;17.90;6.28;;;;;;;-7.84;66.71;102989.77;1750749;79;21656;-86
2020/12/06 04:45:01;;;;;;;15.65;6.10;;;;;;;-7.95;66.84;102992.09;1776833;79;21742;-87
2020/12/06 04:47:44;;;;;;;19.48;6.80;;;;;;;-7.89;66.77;102985.23;1775945;79;21149;-87
2020/12/06 04:50:18;;;;;;;27.00;6.58;;;;;;;-7.89;66.82;102993.55;1769216;79;21545;-87
2020/12/06 04:52:44;;;;;;;19.55;6.78;;;;;;;-7.86;66.72;102990.77;1777664;80;21646;-87
2020/12/06 04:55:14;;;;;;;16.75;6.58;;;;;;;-7.92;66.39;102993.24;1772009;79;21153;-87
2020/12/06 04:57:40;;;;;;;14.63;7.08;;;;;;;-7.89;66.26;102997.01;1776342;80;21994;-86
2020/12/06 05:00:09;;;;;;;17.95;6.85;;;;;;;-7.97;66.49;102998.33;1776036;79;21046;-86
2020/12/06 05:02:39;;;;;;;16.27;6.45;;;;;;;-7.86;66.03;102999.93;1777806;79;21200;-87
2020/12/06 05:05:06;;;;;;;17.12;6.53;;;;;;;-7.89;66.32;103006.17;1713276;81;21069;-87
2020/12/06 05:07:34;;;;;;;18.25;6.10;;;;;;;-7.90;66.19;102998.41;1722994;81;21187;-86
2020/12/06 05:10:00;;;;;;;16.07;6.53;;;;;;;-7.99;66.58;103003.66;1725851;82;21183;-87
2020/12/06 05:12:26;;;;;;;21.57;6.53;;;;;;;-8.03;66.91;103000.36;1735145;82;27097;-87
2020/12/06 05:14:52;;;;;;;18.12;6.75;;;;;;;-8.01;66.39;103001.11;1730052;82;27270;-87
2020/12/06 05:17:18;;;;;;;16.85;6.40;;;;;;;-8.01;66.20;102999.80;1720295;82;21092;-87
2020/12/06 05:19:47;;;;;;;15.65;6.60;;;;;;;-7.84;66.03;102998.09;1724225;82;21205;-86
2020/12/06 05:22:13;;;;;;;19.92;7.50;;;;;;;-7.79;66.01;102994.31;1723450;82;21144;-86
2020/12/06 05:24:42;;;;;;;16.10;6.45;;;;;;;-7.90;66.43;102999.72;1713980;82;21145;-87
2020/12/06 05:27:09;;;;;;;19.32;7.47;;;;;;;-7.93;66.99;102998.57;1718426;82;21704;-87
2020/12/06 05:29:42;;;;;;;18.05;7.55;;;;;;;-7.98;66.96;103004.50;1714472;81;21147;-87
2020/12/06 05:35:36;;;;;;;16.62;6.67;;;;;;;-8.10;66.98;103006.81;1715120;82;21315;-87
2020/12/06 05:38:04;;;;;;;17.05;7.00;;;;;;;-7.99;66.58;103014.13;1715718;82;26955;-87
2020/12/06 05:40:29;;;;;;;16.73;6.28;;;;;;;-8.05;66.44;103007.43;1722922;82;21256;-87
2020/12/06 05:42:55;;;;;;;22.95;6.70;;;;;;;-7.96;67.04;103013.13;1718324;82;28809;-87
2020/12/06 05:45:21;;;;;;;20.77;6.70;;;;;;;-7.88;66.89;103014.42;1712376;82;20950;-86
2020/12/06 05:47:47;;;;;;;17.07;7.03;;;;;;;-7.70;66.25;103013.08;1726424;82;22051;-87
2020/12/06 05:50:13;;;;;;;18.87;6.65;;;;;;;-7.22;64.78;103013.98;1715373;82;27209;-88
2020/12/06 05:52:39;;;;;;;15.70;5.87;;;;;;;-6.88;63.73;103019.53;1732656;82;26866;-86
2020/12/06 05:55:05;;;;;;;17.30;5.50;;;;;;;-6.46;61.85;103027.20;1710560;82;20942;-86
2020/12/06 05:57:31;;;;;;;15.63;5.90;;;;;;;-6.00;59.79;103018.80;1718763;82;20969;-87
2020/12/06 06:00:00;;;;;;;16.73;4.65;;;;;;;-5.71;58.55;103013.53;1727467;82;21216;-87
2020/12/06 06:02:27;;;;;;;19.15;6.05;;;;;;;-5.81;57.09;103017.66;1756410;79;21729;-87
2020/12/06 06:04:59;;;;;;;26.70;6.15;;;;;;;-5.64;56.96;103018.80;1773815;79;21103;-87
2020/12/06 06:07:26;;;;;;;19.32;5.97;;;;;;;-4.82;54.97;103010.61;1773629;79;21200;-86
2020/12/06 06:10:06;;;;;;;16.42;6.05;;;;;;;-4.63;54.19;103016.82;1770954;79;21134;-86
2020/12/06 06:12:34;;;;;;;14.30;5.62;;;;;;;-4.15;53.08;103010.11;1773891;79;21935;-87
2020/12/06 06:15:03;;;;;;;16.80;5.72;;;;;;;-3.68;50.74;103008.65;1773628;79;21235;-87
2020/12/06 06:17:31;;;;;;;23.12;6.00;;;;;;;-3.83;50.37;103014.11;1774075;79;21105;-86
2020/12/06 06:19:58;;;;;;;16.82;6.05;;;;;;;-3.76;50.54;103008.33;1768171;79;21576;-88
2020/12/06 06:22:29;;;;;;;21.20;6.53;;;;;;;-3.53;50.18;103009.82;1777748;79;21200;-87
2020/12/06 06:24:56;;;;;;;15.32;6.20;;;;;;;-2.56;47.90;103014.26;1690336;82;21788;-87
2020/12/06 06:30:27;;;;;;;13.38;5.00;;;;;;;-3.14;47.34;103019.84;1683804;83;21207;-88
2020/12/06 06:32:52;;;;;;;16.00;5.62;;;;;;;-2.29;44.65;103011.38;1689795;83;21045;-88
2020/12/06 06:35:19;;;;;;;14.80;6.00;;;;;;;-2.07;44.51;103018.52;1684551;83;21070;-87
2020/12/06 06:37:46;;;;;;;14.60;5.65;;;;;;;-1.23;44.08;103009.81;1685368;83;21157;-88
2020/12/06 06:40:24;;;;;;;17.42;6.25;;;;;;;-1.55;43.13;103002.61;1670353;84;21577;-88
2020/12/06 06:42:56;;;;;;;15.38;5.85;;;;;;;-1.36;43.26;103005.95;1609254;87;21862;-88
2020/12/06 06:45:26;;;;;;;15.15;5.85;;;;;;;-0.94;42.02;103017.57;1604769;87;21218;-88
2020/12/06 06:47:53;;;;;;;20.30;6.53;;;;;;;-1.06;41.63;103012.41;1610551;87;21356;-88
2020/12/06 06:50:19;;;;;;;13.05;5.87;;;;;;;-0.33;40.69;103006.37;1604197;88;21999;-89
2020/12/06 06:52:47;;;;;;;19.95;6.50;;;;;;;-0.98;41.20;103009.50;1609664;88;21684;-89
2020/12/06 06:55:13;;;;;;;14.80;5.67;;;;;;;-0.84;41.71;103014.17;1604768;88;20997;-88
2020/12/06 06:57:40;;;;;;;12.40;5.75;;;;;;;-1.38;42.03;103008.73;1608639;87;20985;-87
2020/12/06 07:00:07;;;;;;;13.93;6.45;;;;;;;-1.06;40.57;102996.53;1605126;88;21222;-88
2020/12/06 07:02:42;;;;;;;14.40;6.55;;;;;;;-0.81;41.69;103007.30;1609211;88;21247;-87
2020/12/06 07:05:16;;;;;;;15.75;6.53;;;;;;;-0.22;39.46;103010.78;1598474;88;21752;-86
2020/12/06 07:07:50;;;;;;;13.75;5.92;;;;;;;-0.03;38.94;103007.41;1602110;88;21168;-86
2020/12/06 07:10:27;;;;;;;15.98;7.12;;;;;;;0.58;37.93;103006.61;1608047;87;21349;-88
2020/12/06 07:12:58;;;;;;;16.62;6.35;;;;;;;2.57;34.70;103008.79;1614985;84;21183;-88
2020/12/06 07:15:28;;;;;;;15.68;6.60;;;;;;;1.89;35.09;103006.34;1686855;83;21257;-88
2020/12/06 07:17:56;;;;;;;17.17;6.85;;;;;;;0.55;38.04;103006.88;1683829;83;21247;-85
2020/12/06 07:20:25;;;;;;;16.55;6.62;;;;;;;2.04;35.62;103007.56;1696371;83;21212;-85
2020/12/06 07:22:52;;;;;;;17.77;6.15;;;;;;;1.33;37.39;103008.73;1769831;79;21177;-85
2020/12/06 07:25:19;;;;;;;16.10;6.10;;;;;;;0.87;36.70;102994.27;1778058;79;21106;-85
2020/12/06 07:28:17;;;;;;;16.00;7.35;;;;;;;1.53;35.89;103006.06;1777639;79;21982;-85
2020/12/06 07:30:43;;;;;;;15.72;6.92;;;;;;;1.34;36.04;103001.60;1779720;79;21153;-85
2020/12/06 07:33:09;;;;;;;16.32;7.03;;;;;;;2.85;34.22;103003.78;1778105;79;21625;-84
2020/12/06 07:35:35;;;;;;;13.85;6.67;;;;;;;2.37;34.16;103000.04;1779273;80;20971;-84
2020/12/06 07:38:02;;;;;;;15.23;6.05;;;;;;;2.89;32.48;102999.02;1776126;79;21022;-85
2020/12/06 07:40:28;;;;;;;15.50;6.10;;;;;;;1.64;34.15;103003.27;1765773;79;21158;-84
2020/12/06 07:42:54;;;;;;;12.35;6.87;;;;;;;2.25;34.68;103006.86;1773230;79;21098;-85
2020/12/06 07:48:04;;;;;;;13.22;6.30;;;;;;;1.52;33.72;103001.74;1668328;85;21243;-84
2020/12/06 07:50:29;;;;;;;15.10;6.35;;;;;;;4.24;33.48;103006.34;1593366;87;21184;-84
2020/12/06 07:53:03;;;;;;;13.65;6.30;;;;;;;2.98;32.46;103009.28;1598043;87;21875;-84
2020/12/06 07:55:29;;;;;;;16.30;6.55;;;;;;;3.66;32.73;103007.43;1570975;87;21191;-84
2020/12/06 07:57:58;;;;;;;14.23;6.85;;;;;;;1.98;33.54;103016.95;1590109;87;21287;-84
2020/12/06 08:00:36;;;;;;;12.28;6.55;;;;;;;2.24;33.56;103013.18;1597317;88;21402;-84
2020/12/06 08:03:02;;;;;;;11.83;6.80;;;;;;;4.26;33.65;103004.33;1599377;87;21238;-84
2020/12/06 08:05:32;;;;;;;16.12;6.60;;;;;;;2.93;32.42;103005.22;1600707;87;22736;-84
2020/12/06 08:08:20;;;;;;;13.98;6.05;;;;;;;5.85;31.03;103011.06;1592054;86;21377;-84
2020/12/06 08:10:52;;;;;;;12.73;6.10;;;;;;;5.55;29.23;103009.41;1595719;88;22463;-84
2020/12/06 08:13:18;;;;;;;13.68;6.05;;;;;;;3.33;30.63;103004.48;1585856;87;21183;-83
2020/12/06 08:15:46;;;;;;;14.15;6.78;;;;;;;3.34;31.27;103003.47;1562500;88;21263;-83
2020/12/06 08:18:14;;;;;;;15.55;6.83;;;;;;;1.32;33.65;103011.05;1589702;87;21237;-83
2020/12/06 08:20:40;;;;;;;16.67;6.35;;;;;;;-0.54;37.42;103012.97;1598943;87;21345;-83
2020/12/06 08:23:06;;;;;;;13.20;5.80;;;;;;;-1.30;39.36;103012.56;1590056;87;21092;-83
2020/12/06 08:25:36;;;;;;;17.98;6.70;;;;;;;-2.24;41.95;103005.26;1580556;87;21005;-82
2020/12/06 08:28:03;;;;;;;17.85;5.97;;;;;;;-2.22;42.51;103008.63;1590966;87;21377;-84
2020/12/06 08:30:34;;;;;;;11.43;4.33;;;;;;;-2.65;43.56;103007.86;1563255;87;21851;-84
2020/12/06 08:33:04;;;;;;;18.75;5.65;;;;;;;-3.10;43.84;103004.16;1563087;88;21127;-84
2020/12/06 08:38:34;;;;;;;13.85;5.25;;;;;;;-2.73;44.03;103006.77;1505933;93;21223;-84
2020/12/06 08:41:09;;;;;;;17.40;6.37;;;;;;;-3.64;46.13;103005.80;1491224;93;21302;-83
2020/12/06 08:44:08;;;;;;;13.88;5.58;;;;;;;-3.09;45.46;102999.23;1487905;94;21285;-88
2020/12/06 08:46:34;;;;;;;15.65;6.10;;;;;;;-2.95;44.54;103010.11;1492852;92;21388;-87
2020/12/06 08:49:18;;;;;;;17.23;6.20;;;;;;;-3.13;45.95;102999.94;1529422;92;21198;-86
2020/12/06 08:51:54;;;;;;;14.78;6.05;;;;;;;-3.19;46.91;102996.42;1427993;99;21690;-86
2020/12/06 08:54:34;;;;;;;14.85;5.53;;;;;;;-3.49;47.38;102998.13;1442816;97;21755;-87
2020/12/06 08:57:10;;;;;;;14.25;5.53;;;;;;;-3.11;46.26;102999.84;1448630;97;21247;-87
2020/12/06 08:59:38;;;;;;;15.30;6.58;;;;;;;-3.29;46.68;102992.30;1443237;97;21532;-87
2020/12/06 09:02:09;;;;;;;16.85;6.70;;;;;;;-3.39;46.97;102983.34;1445427;97;21247;-87
2020/12/06 09:04:43;;;;;;;17.10;6.10;;;;;;;-3.28;46.91;102991.33;1445215;97;21281;-87
2020/12/06 09:07:08;;;;;;;15.95;6.20;;;;;;;-3.11;46.62;102986.66;1445028;97;21207;-88
2020/12/06 09:09:34;;;;;;;13.90;5.50;;;;;;;-2.99;47.15;102978.69;1448740;97;21326;-85
2020/12/06 09:12:00;;;;;;;17.10;5.70;;;;;;;-3.17;46.85;102981.83;1443768;97;21017;-86
2020/12/06 09:14:26;;;;;;;17.85;6.28;;;;;;;-2.95;46.49;102990.33;1443321;97;21255;-84
2020/12/06 09:16:52;;;;;;;12.43;5.15;;;;;;;-3.03;46.65;102973.73;1443181;97;21112;-83
2020/12/06 09:22:59;;;;;;;13.98;5.12;;;;;;;-2.97;46.38;102971.52;1438256;97;21287;-85
2020/12/06 09:25:24;;;;;;;12.65;4.85;;;;;;;-2.94;46.80;102972.22;1413824;99;21178;-86
2020/12/06 09:27:50;;;;;;;15.63;6.70;;;;;;;-2.73;45.64;102973.30;1414258;99;21102;-85
2020/12/06 09:30:16;;;;;;;14.90;5.70;;;;;;;-2.53;46.07;102961.24;1422994;99;21040;-87
2020/12/06 09:32:42;;;;;;;14.70;5.85;;;;;;;-2.60;46.19;102956.07;1408349;100;21041;-87
2020/12/06 09:35:08;;;;;;;16.48;6.65;;;;;;;-2.34;45.98;102953.62;1458587;96;21316;-86
2020/12/06 09:37:34;;;;;;;14.28;5.58;;;;;;;-2.46;45.80;102949.28;1481847;95;21087;-87
2020/12/06 09:40:00;;;;;;;20.48;7.08;;;;;;;-2.46;45.67;102944.00;1501685;92;21105;-87
2020/12/06 09:42:25;;;;;;;14.45;5.60;;;;;;;-2.41;46.17;102941.86;1545125;90;21208;-87
2020/12/06 09:44:52;;;;;;;15.80;6.08;;;;;;;-2.25;44.39;102934.09;1556965;90;21012;-87
2020/12/06 09:47:18;;;;;;;11.88;4.85;;;;;;;-2.04;44.71;102942.16;1554510;90;21301;-89
2020/12/06 09:49:44;;;;;;;13.93;4.50;;;;;;;-2.01;44.38;102929.55;1541882;91;21065;-89
2020/12/06 09:52:10;;;;;;;12.80;5.50;;;;;;;-1.81;44.81;102929.80;1599300;88;22410;-88
2020/12/06 09:54:35;;;;;;;11.78;5.28;;;;;;;-1.91;45.75;102926.56;1642225;84;20974;-85
2020/12/06 09:57:03;;;;;;;16.93;5.45;;;;;;;-1.96;46.76;102925.23;1761638;79;21034;-84
2020/12/06 09:59:28;;;;;;;12.95;5.35;;;;;;;-1.68;46.79;102918.13;1779588;78;21111;-87
2020/12/06 10:01:54;;;;;;;19.52;5.35;;;;;;;-1.56;46.73;102921.59;1779135;78;21058;-87
2020/12/06 10:04:22;;;;;;;15.60;5.75;;;;;;;-1.51;47.13;102923.88;1775444;78;21145;-86
2020/12/06 10:10:29;;;;;;;13.75;4.65;;;;;;;-1.53;46.84;102912.13;1776356;80;21191;-87
2020/12/06 10:12:55;;;;;;;13.08;5.08;;;;;;;-1.54;47.30;102902.98;1770113;80;21168;-86
2020/12/06 10:15:21;;;;;;;11.45;5.20;;;;;;;-1.56;47.64;102895.16;1770596;80;20925;-87
2020/12/06 10:17:47;;;;;;;13.83;4.85;;;;;;;-1.42;47.64;102893.56;1776851;80;21130;-87
2020/12/06 10:20:12;;;;;;;13.72;4.95;;;;;;;-1.26;47.78;102896.31;1778830;80;20992;-87
2020/12/06 10:22:38;;;;;;;19.02;5.92;;;;;;;-1.39;48.36;102894.64;1765055;80;21685;-88
2020/12/06 10:25:06;;;;;;;13.40;5.35;;;;;;;-1.22;48.33;102885.83;1765778;80;21199;-87
2020/12/06 10:27:35;;;;;;;14.40;5.22;;;;;;;-1.26;48.39;102892.34;1764546;80;21125;-88
2020/12/06 10:30:03;;;;;;;16.55;5.30;;;;;;;-1.23;48.60;102882.84;1748799;80;22452;-87
2020/12/06 10:32:29;;;;;;;14.55;5.00;;;;;;;-1.19;49.12;102879.80;1768882;79;21505;-88
2020/12/06 10:37:59;;;;;;;15.65;5.17;;;;;;;-1.26;48.95;102881.77;1772834;80;21171;-89
2020/12/06 10:40:26;;;;;;;16.75;5.15;;;;;;;-1.23;48.49;102884.16;1769050;80;20990;-88
2020/12/06 10:42:52;;;;;;;19.80;5.30;;;;;;;-1.04;47.71;102883.48;1774541;80;21163;-88
2020/12/06 10:45:18;;;;;;;39.85;11.83;;;;;;;-1.16;46.56;102891.94;1740208;81;21041;-87
2020/12/06 10:47:45;;;;;;;29.80;9.18;;;;;;;-1.18;46.15;102891.22;1772128;80;21014;-87
2020/12/06 10:50:11;;;;;;;12.60;5.00;;;;;;;-1.18;45.29;102897.37;1718440;81;21132;-87
2020/12/06 10:52:37;;;;;;;21.10;6.83;;;;;;;-1.20;45.10;102879.94;1772082;80;21088;-87
2020/12/06 10:55:05;;;;;;;12.53;5.10;;;;;;;-0.78;45.19;102881.31;1765702;80;21513;-87
2020/12/06 10:57:31;;;;;;;15.60;5.22;;;;;;;-1.06;44.35;102879.66;1770245;80;21545;-87
2020/12/06 11:03:37;;;;;;;17.48;5.92;;;;;;;-0.99;44.48;102885.27;1771302;80;21132;-88
2020/12/06 11:09:44;;;;;;;12.00;4.58;;;;;;;-1.03;44.54;102880.72;1767187;80;21307;-87
2020/12/06 11:12:09;;;;;;;13.18;5.22;;;;;;;-1.02;45.16;102874.45;1751439;80;21043;-86
2020/12/06 11:14:35;;;;;;;13.93;4.87;;;;;;;-1.08;45.61;102886.86;1767596;80;20950;-87
2020/12/06 11:17:01;;;;;;;15.55;5.15;;;;;;;-1.17;46.25;102873.91;1769026;80;21205;-87
2020/12/06 11:19:27;;;;;;;15.90;5.28;;;;;;;-1.04;46.60;102870.25;1763381;80;21626;-87
2020/12/06 11:21:53;;;;;;;16.15;5.97;;;;;;;-0.96;47.01;102881.05;1765382;80;21013;-88
2020/12/06 11:27:59;;;;;;;15.80;5.30;;;;;;;-1.07;47.91;102876.63;1767907;80;21175;-86
2020/12/06 11:30:25;;;;;;;11.18;4.40;;;;;;;-1.17;48.36;102875.72;1761454;80;21920;-86
2020/12/06 11:32:51;;;;;;;16.85;5.30;;;;;;;-1.18;48.73;102865.62;1747293;80;21012;-85
2020/12/06 11:35:17;;;;;;;12.70;4.10;;;;;;;-1.12;48.99;102864.25;1773410;80;21139;-86
2020/12/06 11:37:43;;;;;;;13.93;4.92;;;;;;;-1.00;48.49;102857.11;1765343;80;21455;-86
2020/12/06 11:40:09;;;;;;;12.23;4.15;;;;;;;-1.14;49.20;102867.53;1768491;80;20975;-86
2020/12/06 11:42:37;;;;;;;14.35;5.45;;;;;;;-1.05;49.08;102865.45;1769162;80;21806;-86
2020/12/06 11:45:03;;;;;;;15.70;4.83;;;;;;;-0.94;49.15;102872.50;1755279;81;21136;-87
2020/12/06 11:47:29;;;;;;;15.85;4.62;;;;;;;-1.18;50.27;102872.70;1763462;80;21159;-86
2020/12/06 11:49:58;;;;;;;13.93;4.60;;;;;;;-1.19;50.04;102869.22;1738880;81;21004;-88
2020/12/06 11:52:24;;;;;;;12.80;4.95;;;;;;;-1.17;50.24;102859.85;1773944;79;21167;-89
2020/12/06 11:54:49;;;;;;;12.80;3.58;;;;;;;-1.19;50.39;102848.55;1770562;80;21240;-88
2020/12/06 11:57:15;;;;;;;10.60;3.70;;;;;;;-1.25;50.82;102868.89;1771139;79;21108;-90
2020/12/06 11:59:43;;;;;;;18.15;5.75;;;;;;;-1.33;50.99;102855.44;1776203;80;21087;-88
2020/12/06 12:02:09;;;;;;;18.12;6.50;;;;;;;-1.29;51.14;102878.05;1772746;80;21099;-90
2020/12/06 12:08:15;;;;;;;12.75;5.00;;;;;;;-1.30;51.53;102853.87;1778702;80;21179;-89
2020/12/06 12:10:41;;;;;;;13.80;5.22;;;;;;;-1.19;51.25;102846.73;1769009;80;21003;-88
2020/12/06 12:13:07;;;;;;;15.88;5.50;;;;;;;-1.21;51.82;102850.47;1766810;80;20966;-89
2020/12/06 12:15:32;;;;;;;10.13;4.15;;;;;;;-1.27;52.51;102854.94;1762806;80;21036;-88